»·PEaware :: DAL434 KONT-KLAS

DAL434 :: KONT-KLAS

FLIGHT INFORMATION

Flight Status: Arrived
Operator:
Delta Air Lines
More flights by this operator :: More flights under this callsign
Pilot: Drew Hood (3199)
Aircraft: CANADAIR CL-600 CRJ-200
(CRJ2)
More flights by this aircraft type
Origin: KONT Ontario Intl
United States
Destination: KLAS McCarran Intl
United States
More flights between these airports :: More routes between these airports
Route: +POM9 DAG KEPEC3
File this flight plan on PilotEdge
Remarks:
Altitude:
(Current/Filed)
23,000ft
Speed:
(Current/Filed)
425kts
Departed: 10-Jan-17 11:21 AM
Arrived: 10-Jan-17 12:14 PM
Distance/Time
Traveled:
171nm/0:53
Distance/Time
To Go:
Arrived

Flight Plot

Page will automatically refresh every two minutes.


Map Options




Map Legend


Flown Route
Filed Route
Departure Airport
Arrival Airport
Navaid (VOR, NDB)
Fix

Horizontal Profiles

Position Reports

Time Latitude Longitude Heading Altitude Ground
Speed
10-Jan-17 10:35 34.059851 -117.599830 33 948ft 0kts
10-Jan-17 10:36 34.059848 -117.599830 33 948ft 0kts
10-Jan-17 10:37 34.059848 -117.599830 33 948ft 0kts
10-Jan-17 10:38 34.059848 -117.599830 33 948ft 0kts
10-Jan-17 10:39 34.059848 -117.599830 33 948ft 0kts
10-Jan-17 10:40 34.059848 -117.599830 33 948ft 0kts
10-Jan-17 10:41 34.059848 -117.599830 33 948ft 0kts
10-Jan-17 10:42 34.059848 -117.599830 33 948ft 0kts
10-Jan-17 10:43 34.059848 -117.599830 33 948ft 0kts
10-Jan-17 10:44 34.059848 -117.599830 33 948ft 0kts
10-Jan-17 10:45 34.059848 -117.599830 33 948ft 0kts
10-Jan-17 10:46 34.059848 -117.599830 33 948ft 0kts
10-Jan-17 10:47 34.059848 -117.599830 33 948ft 0kts
10-Jan-17 10:48 34.059848 -117.599830 33 948ft 0kts
10-Jan-17 10:49 34.059848 -117.599830 33 948ft 0kts
10-Jan-17 10:50 34.059848 -117.599830 33 948ft 0kts
10-Jan-17 10:51 34.059848 -117.599830 33 948ft 0kts
10-Jan-17 10:52 34.059848 -117.599830 33 948ft 0kts
10-Jan-17 10:53 34.059848 -117.599830 33 948ft 0kts
10-Jan-17 10:54 34.059848 -117.599830 33 948ft 0kts
10-Jan-17 10:55 34.059848 -117.599830 33 948ft 0kts
10-Jan-17 10:56 34.059848 -117.599830 33 948ft 0kts
10-Jan-17 10:57 34.059848 -117.599830 33 948ft 0kts
10-Jan-17 10:58 34.059848 -117.599830 33 948ft 0kts
10-Jan-17 10:59 34.059848 -117.599830 33 948ft 0kts
10-Jan-17 11:00 34.059848 -117.599830 33 948ft 0kts
10-Jan-17 11:01 34.059848 -117.599830 33 948ft 0kts
10-Jan-17 11:02 34.059848 -117.599830 33 948ft 0kts
10-Jan-17 11:03 34.059848 -117.599830 33 948ft 0kts
10-Jan-17 11:04 34.059848 -117.599830 33 948ft 0kts
10-Jan-17 11:05 34.059848 -117.599830 33 948ft 0kts
10-Jan-17 11:06 34.059848 -117.599830 33 948ft 0kts
10-Jan-17 11:07 34.059848 -117.599830 33 948ft 0kts
10-Jan-17 11:08 34.059848 -117.599830 33 948ft 0kts
10-Jan-17 11:09 34.059695 -117.600149 121 948ft 1kts
10-Jan-17 11:10 34.059848 -117.600232 172 948ft 0kts
10-Jan-17 11:11 34.059848 -117.600232 172 948ft 0kts
10-Jan-17 11:12 34.059848 -117.600232 172 948ft 0kts
10-Jan-17 11:13 34.059218 -117.598929 89 948ft 9kts
10-Jan-17 11:14 34.059221 -117.596349 89 948ft 5kts
10-Jan-17 11:15 34.059222 -117.593210 89 948ft 14kts
10-Jan-17 11:16 34.059243 -117.589107 88 948ft 9kts
10-Jan-17 11:17 34.059231 -117.586521 90 948ft 7kts
10-Jan-17 11:18 34.059222 -117.583849 90 948ft 10kts
10-Jan-17 11:19 34.057779 -117.582684 179 948ft 8kts
10-Jan-17 11:20 34.057615 -117.582685 179 948ft 0kts
10-Jan-17 11:21 34.056880 -117.589198 270 948ft 98kts
10-Jan-17 11:22 34.057783 -117.646071 268 2228ft 200kts
10-Jan-17 11:23 34.056105 -117.714464 268 3614ft 226kts
10-Jan-17 11:24 34.075289 -117.784276 312 4976ft 258kts
10-Jan-17 11:25 34.121128 -117.836289 315 7609ft 229kts
10-Jan-17 11:26 34.166998 -117.890190 312 9728ft 212kts
10-Jan-17 11:27 34.207909 -117.937525 308 11991ft 208kts
10-Jan-17 11:28 34.249672 -117.986409 308 14055ft 213kts
10-Jan-17 11:29 34.294087 -118.033888 332 15890ft 233kts
10-Jan-17 11:30 34.344800 -117.981048 76 17327ft 305kts
10-Jan-17 11:31 34.378671 -117.887672 56 18810ft 307kts
10-Jan-17 11:32 34.419675 -117.796110 55 20181ft 314kts
10-Jan-17 11:33 34.461870 -117.702800 55 21428ft 322kts
10-Jan-17 11:34 34.505081 -117.607060 55 22584ft 329kts
10-Jan-17 11:35 34.549958 -117.507442 55 23154ft 356kts
10-Jan-17 11:36 34.599348 -117.397329 56 23149ft 383kts
10-Jan-17 11:37 34.650616 -117.283357 56 23136ft 401kts
10-Jan-17 11:38 34.704531 -117.162536 57 23137ft 414kts
10-Jan-17 11:39 34.759739 -117.038222 57 23117ft 426kts
10-Jan-17 11:40 34.816427 -116.910109 57 23090ft 436kts
10-Jan-17 11:41 34.874051 -116.779380 57 23085ft 443kts
10-Jan-17 11:42 34.932234 -116.646873 57 23086ft 448kts
10-Jan-17 11:43 35.002534 -116.525366 35 23094ft 437kts
10-Jan-17 11:44 35.089407 -116.419657 38 23116ft 446kts
10-Jan-17 11:45 35.171038 -116.317861 38 22069ft 430kts
10-Jan-17 11:46 35.252237 -116.216222 39 20301ft 420kts
10-Jan-17 11:47 35.332200 -116.115321 40 18625ft 410kts
10-Jan-17 11:48 35.410159 -116.016175 40 16993ft 402kts
10-Jan-17 11:49 35.485468 -115.921294 39 15902ft 358kts
10-Jan-17 11:50 35.553447 -115.835377 40 14867ft 349kts
10-Jan-17 11:51 35.619935 -115.750741 40 13749ft 343kts
10-Jan-17 11:52 35.685170 -115.667450 40 13013ft 332kts
10-Jan-17 11:53 35.753600 -115.590147 19 13019ft 338kts
10-Jan-17 11:54 35.841535 -115.571238 354 13007ft 308kts
10-Jan-17 11:55 35.925800 -115.564833 2 12994ft 308kts
10-Jan-17 11:56 35.988282 -115.497766 59 12154ft 317kts
10-Jan-17 11:57 36.022928 -115.399693 66 11032ft 304kts
10-Jan-17 11:58 36.025737 -115.304755 97 10149ft 276kts
10-Jan-17 11:59 36.019377 -115.212449 99 8954ft 265kts
10-Jan-17 12:00 36.013122 -115.122442 97 8040ft 261kts
10-Jan-17 12:01 36.007373 -115.032473 93 8012ft 265kts
10-Jan-17 12:02 36.002177 -114.946620 92 7529ft 230kts
10-Jan-17 12:03 35.996653 -114.869945 92 6052ft 219kts
10-Jan-17 12:04 35.991418 -114.796523 92 5030ft 206kts
10-Jan-17 12:05 35.990627 -114.727945 54 5025ft 201kts
10-Jan-17 12:06 36.029306 -114.742036 291 5033ft 195kts
10-Jan-17 12:07 36.047456 -114.805935 291 5007ft 189kts
10-Jan-17 12:08 36.063463 -114.863640 291 5033ft 172kts
10-Jan-17 12:09 36.074480 -114.923954 274 5018ft 186kts
10-Jan-17 12:10 36.073908 -114.984963 273 4408ft 169kts
10-Jan-17 12:11 36.074027 -115.041498 272 3612ft 169kts
10-Jan-17 12:12 36.073620 -115.099694 273 2688ft 162kts
10-Jan-17 12:13 36.073601 -115.146327 267 2146ft 72kts
10-Jan-17 12:14 36.075549 -115.156447 316 2146ft 20kts
10-Jan-17 12:15 36.081010 -115.158248 359 2146ft 18kts
10-Jan-17 12:16 36.081619 -115.154581 75 2146ft 12kts
10-Jan-17 12:17 36.082528 -115.153534 65 2146ft 0kts
10-Jan-17 12:18 36.082528 -115.153534 65 2146ft 0kts
10-Jan-17 12:19 36.082528 -115.153534 65 2146ft 0kts
10-Jan-17 12:20 36.082528 -115.153534 65 2146ft 0kts
10-Jan-17 12:21 36.082528 -115.153534 65 2146ft 0kts
10-Jan-17 12:22 36.082528 -115.153534 65 2146ft 0kts
10-Jan-17 12:23 36.082528 -115.153534 65 2146ft 0kts
10-Jan-17 12:24 36.082528 -115.153534 65 2146ft 0kts
10-Jan-17 12:25 36.082528 -115.153534 65 2146ft 0kts
10-Jan-17 12:26 36.082528 -115.153534 65 2146ft 0kts
10-Jan-17 12:27 36.082528 -115.153534 65 2146ft 0kts
10-Jan-17 12:28 36.082528 -115.153534 65 2146ft 0kts

Navigation Log

Ident Type
1. KONT Airport
2. POM Navaid
3. SULZU Fix
4. FROUN Fix
5. DAG Navaid
6. MISEN Fix
7. CLARR Fix
8. SKEBR Fix
9. KEPEC Fix
10. IPUMY Fix
11. NIPZO Fix
12. SUNST Fix
13. KIMME Fix
14. CHIPZ Fix
15. POKRR Fix
16. PRINO Fix
17. KLAS Airport